To NAV CANADA Home Page Login to a new session Search on AWWS site Disclaimer Vers la page française équivalente Tips FAQ What's new on the site To the Forecasts and Observations / NOTAM section To "File a Flight Plan" website Publications and other links Update of the User's profile FIC Telephone Numbers My Weather Data Folder Route Weather Data Regional Weather Data Local Weather Data To the Forecasts and Observations / NOTAM section
Request Generated 02/17/2019 at 02:16:03 UTC . Weather information available at that time is displayed.

METAR/TAF

MONTREAL/ST-HUBERT/QC    (show WxCam)

METAR CYHU 170200Z AUTO 31010KT 9SM CLR M08/M14 A3007 RMK SLP184=
METAR CYHU 170100Z AUTO 33008KT 9SM CLR M08/M14 A3004 RMK SLP174=
METAR CYHU 170000Z AUTO 32009KT 9SM CLR M06/M13 A3003 RMK SLP172=

TAF CYHU 162344Z 1700/1724 30010KT P6SM SCT040
FM170300 30008KT P6SM SKC
BECMG 1707/1709 VRB03KT
FM172300 VRB03KT P6SM BKN160
RMK FCST BASED ON AUTO OBS. NXT FCST BY 170600Z=
Your time UTC time
Weather data provided by Environment Canada and NAV CANADA